createdAt,value
2019-04-26T00:00:45.934Z,19.77
2019-04-26T00:03:16.323Z,20.00
2019-04-26T00:05:45.172Z,18.90
2019-04-26T00:08:13.920Z,18.52
2019-04-26T00:10:47.709Z,19.85
2019-04-26T00:13:18.328Z,17.73
2019-04-26T00:15:51.470Z,18.12
2019-04-26T00:18:20.963Z,17.37
2019-04-26T00:20:49.703Z,17.32
2019-04-26T00:23:18.454Z,18.15
2019-04-26T00:25:47.135Z,19.15
2019-04-26T00:28:16.927Z,17.02
2019-04-26T00:30:45.770Z,18.10
2019-04-26T00:33:15.251Z,16.77
2019-04-26T00:35:47.583Z,16.25
2019-04-26T00:38:14.381Z,16.42
2019-04-26T00:40:44.727Z,16.73
2019-04-26T00:43:14.294Z,16.97
2019-04-26T00:45:43.706Z,18.75
2019-04-26T00:48:15.340Z,18.52
2019-04-26T00:50:44.685Z,18.70
2019-04-26T00:53:16.000Z,19.62
2019-04-26T00:55:45.090Z,18.12
2019-04-26T00:58:16.293Z,18.80
2019-04-26T01:00:45.156Z,18.35
2019-04-26T01:03:15.146Z,19.15
2019-04-26T01:05:44.130Z,15.05
2019-04-26T01:08:12.944Z,19.35
2019-04-26T01:10:41.621Z,20.08
2019-04-26T01:13:10.441Z,19.12
2019-04-26T01:15:39.125Z,23.85
2019-04-26T01:18:07.879Z,23.12
2019-04-26T01:20:37.695Z,22.45
2019-04-26T01:23:08.741Z,23.15
2019-04-26T01:26:02.921Z,21.33
2019-04-26T01:28:40.198Z,21.70
2019-04-26T01:31:09.161Z,20.35
2019-04-26T01:33:38.697Z,20.00
2019-04-26T01:36:13.089Z,18.42
2019-04-26T01:41:08.507Z,18.52
2019-04-26T01:46:36.178Z,17.52
2019-04-26T01:49:08.006Z,18.07
2019-04-26T01:51:39.676Z,16.82
2019-04-26T01:54:11.199Z,17.70
2019-04-26T01:56:40.041Z,16.70
2019-04-26T01:59:11.860Z,18.42
2019-04-26T02:01:54.072Z,16.50
2019-04-26T02:04:25.700Z,17.75
2019-04-26T02:06:54.385Z,17.87
2019-04-26T02:09:24.292Z,18.10
2019-04-26T02:11:53.021Z,12.63
2019-04-26T02:14:22.654Z,17.02
2019-04-26T02:16:52.266Z,16.17
2019-04-26T02:19:21.514Z,16.90
2019-04-26T02:21:52.005Z,18.67
2019-04-26T02:24:28.253Z,17.02
2019-04-26T02:26:57.499Z,17.50
2019-04-26T02:29:26.951Z,17.90
2019-04-26T02:31:58.712Z,17.02
2019-04-26T02:34:30.810Z,17.75
2019-04-26T02:37:02.114Z,17.48
2019-04-26T02:39:35.328Z,18.25
2019-04-26T02:42:07.137Z,15.78
2019-04-26T02:44:39.310Z,16.30
2019-04-26T02:47:34.661Z,16.97
2019-04-26T02:50:07.421Z,16.82
2019-04-26T02:52:58.517Z,16.40
2019-04-26T02:56:03.107Z,16.75
2019-04-26T02:58:35.987Z,17.25
2019-04-26T03:01:05.282Z,17.45
2019-04-26T03:03:35.649Z,16.42
2019-04-26T03:06:04.417Z,17.80
2019-04-26T03:08:37.169Z,17.60
2019-04-26T03:11:09.165Z,16.55
2019-04-26T03:13:43.692Z,17.70
2019-04-26T03:16:23.110Z,17.17
2019-04-26T03:18:58.942Z,16.95
2019-04-26T03:21:39.403Z,17.77
2019-04-26T03:24:23.093Z,16.48
2019-04-26T03:27:15.761Z,16.60
2019-04-26T03:30:19.684Z,16.65
2019-04-26T03:35:25.563Z,16.80
2019-04-26T03:38:13.469Z,17.23
2019-04-26T03:40:58.316Z,16.45
2019-04-26T03:43:36.985Z,17.55
2019-04-26T03:46:14.842Z,16.48
2019-04-26T03:48:58.478Z,15.95
2019-04-26T03:51:49.656Z,16.00
2019-04-26T03:56:52.412Z,14.60
2019-04-26T03:59:44.219Z,15.18
2019-04-26T04:02:18.257Z,14.50
2019-04-26T04:04:54.379Z,15.03
2019-04-26T04:07:36.993Z,14.63
2019-04-26T04:10:19.637Z,15.78
2019-04-26T04:13:00.030Z,14.18
2019-04-26T04:15:44.875Z,15.00
2019-04-26T04:18:29.257Z,14.87
2019-04-26T04:21:20.234Z,15.60
2019-04-26T04:23:51.921Z,14.55
2019-04-26T04:26:49.168Z,15.10
2019-04-26T04:29:42.827Z,15.20
2019-04-26T04:32:28.530Z,14.68
2019-04-26T04:35:00.209Z,15.03
2019-04-26T04:37:31.894Z,16.37
2019-04-26T04:40:20.089Z,15.85
2019-04-26T04:43:20.063Z,15.90
2019-04-26T04:46:08.240Z,15.25
2019-04-26T04:48:51.140Z,16.48
2019-04-26T04:51:38.850Z,16.12
2019-04-26T04:54:38.916Z,17.02
2019-04-26T04:57:13.588Z,17.00
2019-04-26T04:59:46.107Z,15.95
2019-04-26T05:02:19.497Z,15.60
2019-04-26T05:05:09.134Z,18.70
2019-04-26T05:07:47.293Z,17.57
2019-04-26T05:10:24.961Z,17.35
2019-04-26T05:13:02.317Z,17.37
2019-04-26T05:16:21.797Z,17.12
2019-04-26T05:18:56.411Z,17.40
2019-04-26T05:21:47.118Z,18.60
2019-04-26T05:24:39.634Z,17.35
2019-04-26T05:27:18.761Z,16.45
2019-04-26T05:29:57.925Z,16.52
2019-04-26T05:32:38.300Z,18.42
2019-04-26T05:35:35.052Z,14.75
2019-04-26T05:38:18.872Z,17.50
2019-04-26T05:41:11.570Z,16.82
2019-04-26T05:43:56.218Z,15.88
2019-04-26T05:46:55.765Z,17.35
2019-04-26T05:49:55.904Z,17.15
2019-04-26T05:52:47.323Z,18.80
2019-04-26T05:55:41.276Z,19.32
2019-04-26T05:58:32.083Z,20.92
2019-04-26T06:01:20.229Z,19.10
2019-04-26T06:04:27.597Z,19.52
2019-04-26T06:07:03.649Z,21.27
2019-04-26T06:10:04.953Z,22.25
2019-04-26T06:13:02.911Z,23.05
2019-04-26T06:15:47.325Z,22.32
2019-04-26T06:18:23.591Z,22.02
2019-04-26T06:21:02.058Z,23.67
2019-04-26T06:23:52.901Z,22.48
2019-04-26T06:26:54.252Z,23.52
2019-04-26T06:32:17.206Z,22.90
2019-04-26T06:37:19.958Z,22.93
2019-04-26T06:39:51.636Z,19.42
2019-04-26T06:42:38.313Z,21.05
2019-04-26T06:45:17.400Z,21.65
2019-04-26T06:48:06.045Z,21.85
2019-04-26T06:50:49.393Z,26.48
2019-04-26T06:53:46.338Z,29.05
2019-04-26T06:56:34.429Z,27.80
2019-04-26T06:59:17.089Z,27.80
2019-04-26T07:01:51.269Z,20.27
2019-04-26T07:04:34.672Z,21.17
2019-04-26T07:07:18.302Z,21.37
2019-04-26T07:10:02.530Z,37.23
2019-04-26T07:12:36.965Z,21.05
2019-04-26T07:15:29.021Z,24.47
2019-04-26T07:18:04.383Z,24.45
2019-04-26T07:20:37.733Z,21.50
2019-04-26T07:23:37.724Z,22.65
2019-04-26T07:26:27.403Z,26.97
2019-04-26T07:29:09.148Z,22.93
2019-04-26T07:32:08.049Z,21.05
2019-04-26T07:34:44.033Z,20.80
2019-04-26T07:37:48.450Z,22.17
2019-04-26T07:41:09.773Z,21.30
2019-04-26T07:43:59.573Z,22.07
2019-04-26T07:46:36.817Z,21.23
2019-04-26T07:49:12.419Z,21.48
2019-04-26T07:52:18.850Z,21.77
2019-04-26T07:54:59.436Z,21.27
2019-04-26T07:57:42.849Z,21.12
2019-04-26T08:00:44.321Z,20.52
2019-04-26T08:03:22.738Z,20.52
2019-04-26T08:06:07.374Z,18.90
2019-04-26T08:08:48.170Z,16.85
2019-04-26T08:11:25.264Z,17.12
2019-04-26T08:14:06.234Z,18.45
2019-04-26T08:16:55.293Z,17.37
2019-04-26T08:19:26.681Z,17.40
2019-04-26T08:22:11.615Z,19.10
2019-04-26T08:24:30.057Z,16.42
2019-04-26T08:27:18.673Z,15.90
2019-04-26T08:29:43.908Z,14.98
2019-04-26T08:32:17.221Z,16.02
2019-04-26T08:34:49.292Z,15.63
2019-04-26T08:37:28.471Z,14.70
2019-04-26T08:39:58.705Z,14.58
2019-04-26T08:42:35.512Z,13.93
2019-04-26T08:45:25.645Z,13.95
2019-04-26T08:48:15.196Z,12.80
2019-04-26T08:50:47.049Z,12.78
2019-04-26T08:53:17.699Z,14.18
2019-04-26T08:55:48.143Z,12.45
2019-04-26T08:58:19.829Z,12.53
2019-04-26T09:00:57.912Z,11.80
2019-04-26T09:03:39.959Z,11.38
2019-04-26T09:06:15.613Z,11.43
2019-04-26T09:08:47.301Z,10.82
2019-04-26T09:11:25.846Z,10.28
2019-04-26T09:13:51.120Z,11.88
2019-04-26T09:16:20.944Z,10.20
2019-04-26T09:18:54.387Z,10.73
2019-04-26T09:21:22.009Z,10.80
2019-04-26T09:24:01.634Z,10.60
2019-04-26T09:26:48.519Z,10.58
2019-04-26T09:29:30.291Z,12.53
2019-04-26T09:31:59.613Z,8.70
2019-04-26T09:34:32.489Z,9.68
2019-04-26T09:37:01.233Z,10.20
2019-04-26T09:39:30.180Z,8.30
2019-04-26T09:42:01.239Z,10.35
2019-04-26T09:44:32.596Z,7.47
2019-04-26T09:47:02.977Z,7.55
2019-04-26T09:49:41.143Z,7.10
2019-04-26T09:52:10.815Z,6.85
2019-04-26T09:54:39.488Z,6.72
2019-04-26T09:57:08.301Z,7.58
2019-04-26T09:59:40.094Z,7.15
2019-04-26T10:02:08.517Z,6.35
2019-04-26T10:04:37.265Z,6.30
2019-04-26T10:07:06.025Z,7.83
2019-04-26T10:09:34.701Z,7.72
2019-04-26T10:12:21.066Z,6.53
2019-04-26T10:14:51.445Z,6.37
2019-04-26T10:17:21.766Z,9.20
2019-04-26T10:19:52.135Z,7.35
2019-04-26T10:22:22.772Z,7.05
2019-04-26T10:24:51.520Z,8.03
2019-04-26T10:27:20.188Z,7.47
2019-04-26T10:29:48.965Z,8.05
2019-04-26T10:32:21.811Z,8.15
2019-04-26T10:34:48.944Z,6.85
2019-04-26T10:37:17.717Z,6.62
2019-04-26T10:39:46.395Z,7.65
2019-04-26T10:42:15.532Z,8.33
2019-04-26T10:44:44.281Z,9.43
2019-04-26T10:47:15.623Z,8.58
2019-04-26T10:49:44.927Z,7.75
2019-04-26T10:52:17.109Z,8.00
2019-04-26T10:55:02.642Z,9.58
2019-04-26T10:57:33.121Z,8.18
2019-04-26T11:00:03.513Z,8.35
2019-04-26T11:02:32.357Z,8.05
2019-04-26T11:05:01.105Z,6.72
2019-04-26T11:07:29.849Z,6.83
2019-04-26T11:09:58.598Z,6.58
2019-04-26T11:12:27.344Z,6.47
2019-04-26T11:14:56.930Z,8.35
2019-04-26T11:17:26.333Z,7.67
2019-04-26T11:19:55.088Z,6.10
2019-04-26T11:22:29.182Z,7.87
2019-04-26T11:24:55.016Z,6.80
2019-04-26T11:27:23.806Z,7.72
2019-04-26T11:29:53.988Z,6.35
2019-04-26T11:32:22.943Z,10.23
2019-04-26T11:34:54.536Z,7.22
2019-04-26T11:37:22.019Z,6.87
2019-04-26T11:39:50.727Z,7.58
2019-04-26T11:42:19.374Z,7.90
2019-04-26T11:44:48.134Z,6.80
2019-04-26T11:47:16.726Z,6.95
2019-04-26T11:49:45.461Z,8.73
2019-04-26T11:52:14.156Z,6.53
2019-04-26T11:54:42.842Z,6.28
2019-04-26T11:57:12.131Z,6.55
2019-04-26T11:59:41.900Z,5.97
2019-04-26T12:02:12.201Z,7.20
2019-04-26T12:04:42.572Z,7.47
2019-04-26T12:07:18.809Z,7.60
2019-04-26T12:09:49.126Z,8.23
2019-04-26T12:12:17.818Z,8.28
2019-04-26T12:14:46.561Z,10.38
2019-04-26T12:17:15.245Z,7.20
2019-04-26T12:19:44.004Z,7.92
2019-04-26T12:22:12.747Z,8.08
2019-04-26T12:24:41.561Z,8.70
2019-04-26T12:27:10.677Z,9.08
2019-04-26T12:29:39.486Z,8.35
2019-04-26T12:32:08.161Z,8.80
2019-04-26T12:34:36.828Z,7.55
2019-04-26T12:37:05.579Z,6.35
2019-04-26T12:39:36.583Z,8.10
2019-04-26T12:42:08.137Z,7.72
2019-04-26T12:44:41.069Z,8.15
2019-04-26T12:47:21.095Z,15.03
2019-04-26T12:49:50.061Z,11.00
2019-04-26T12:52:21.625Z,9.65
2019-04-26T12:54:49.125Z,9.30
2019-04-26T12:57:17.882Z,11.18
2019-04-26T12:59:46.557Z,10.48
2019-04-26T13:02:16.564Z,9.68
2019-04-26T13:04:45.766Z,8.98
2019-04-26T13:07:23.667Z,9.68
2019-04-26T13:10:06.978Z,11.30
2019-04-26T13:12:53.618Z,10.53
2019-04-26T13:15:50.685Z,9.00
2019-04-26T13:18:20.569Z,8.48
2019-04-26T13:20:49.312Z,8.88
2019-04-26T13:23:17.997Z,8.25
2019-04-26T13:25:46.672Z,9.43
2019-04-26T13:28:15.665Z,8.50
2019-04-26T13:30:45.749Z,8.65
2019-04-26T13:33:14.498Z,8.55
2019-04-26T13:35:46.562Z,9.08
2019-04-26T13:38:13.571Z,9.23
2019-04-26T13:40:42.258Z,10.45
2019-04-26T13:43:10.932Z,9.48
2019-04-26T13:45:41.331Z,10.70
2019-04-26T13:48:27.650Z,9.08
2019-04-26T13:51:05.658Z,10.82
2019-04-26T13:53:34.414Z,11.85
2019-04-26T13:56:03.510Z,11.48
2019-04-26T13:58:32.245Z,10.88
2019-04-26T14:01:01.975Z,11.83
2019-04-26T14:03:31.602Z,11.50
2019-04-26T14:06:01.117Z,8.83
2019-04-26T14:08:29.790Z,8.65
2019-04-26T14:10:58.536Z,7.67
2019-04-26T14:13:27.285Z,10.08
2019-04-26T14:15:56.013Z,8.80
2019-04-26T14:18:24.824Z,9.95
2019-04-26T14:20:54.740Z,7.12
2019-04-26T14:23:34.346Z,7.67
2019-04-26T14:26:07.673Z,7.80
2019-04-26T14:28:36.427Z,7.92
2019-04-26T14:31:05.443Z,8.20
2019-04-26T14:33:34.210Z,8.88
2019-04-26T14:36:02.958Z,9.95
2019-04-26T14:38:39.356Z,9.80
2019-04-26T14:41:04.026Z,10.90
2019-04-26T14:43:40.385Z,10.30
2019-04-26T14:46:02.862Z,10.70
2019-04-26T14:48:36.093Z,9.93
2019-04-26T14:51:08.331Z,11.00
2019-04-26T14:53:36.269Z,10.18
2019-04-26T14:56:02.741Z,10.25
2019-04-26T14:58:33.607Z,9.70
2019-04-26T15:01:03.569Z,9.25
2019-04-26T15:03:34.099Z,10.08
2019-04-26T15:06:22.200Z,8.85
2019-04-26T15:08:52.965Z,8.85
2019-04-26T15:11:22.937Z,9.45
2019-04-26T15:13:51.762Z,9.88
2019-04-26T15:16:22.154Z,9.10
2019-04-26T15:18:52.465Z,9.78
2019-04-26T15:21:22.731Z,9.73
2019-04-26T15:23:55.279Z,8.15
2019-04-26T15:26:24.398Z,10.40
2019-04-26T15:28:52.154Z,9.60
2019-04-26T15:31:21.729Z,10.98
2019-04-26T15:33:52.796Z,9.65
2019-04-26T15:36:23.131Z,11.12
2019-04-26T15:38:52.873Z,9.90
2019-04-26T15:41:39.082Z,11.10
2019-04-26T15:44:28.205Z,8.68
2019-04-26T15:47:13.139Z,9.33
2019-04-26T15:49:49.245Z,9.50
2019-04-26T15:52:17.917Z,7.70
2019-04-26T15:54:46.661Z,4.70
2019-04-26T15:57:15.341Z,4.15
2019-04-26T15:59:44.165Z,3.83
2019-04-26T16:02:12.914Z,2.65
2019-04-26T16:04:42.458Z,2.90
2019-04-26T16:07:16.176Z,3.67
2019-04-26T16:09:43.193Z,4.58
2019-04-26T16:12:13.411Z,4.30
2019-04-26T16:14:42.319Z,3.67
2019-04-26T16:17:12.358Z,4.00
2019-04-26T16:19:41.210Z,3.72
2019-04-26T16:22:09.889Z,4.03
2019-04-26T16:24:38.638Z,4.45
2019-04-26T16:27:07.393Z,4.80
2019-04-26T16:29:37.774Z,5.67
2019-04-26T16:32:08.156Z,5.70
2019-04-26T16:34:42.937Z,5.15
2019-04-26T16:37:09.923Z,5.85
2019-04-26T16:39:40.049Z,5.62
2019-04-26T16:42:08.934Z,6.28
2019-04-26T16:44:37.608Z,6.22
2019-04-26T16:47:06.366Z,6.72
2019-04-26T16:49:41.636Z,6.58
2019-04-26T16:52:07.038Z,6.60
2019-04-26T16:54:35.869Z,7.20
2019-04-26T16:57:06.372Z,6.67
2019-04-26T16:59:35.019Z,8.93
2019-04-26T17:02:03.874Z,7.08
2019-04-26T17:04:36.222Z,7.80
2019-04-26T17:07:05.079Z,7.08
2019-04-26T17:09:54.454Z,7.10
2019-04-26T17:12:04.045Z,8.70
2019-04-26T17:14:34.141Z,9.93
2019-04-26T17:17:03.285Z,9.85
2019-04-26T17:19:35.841Z,10.25
2019-04-26T17:22:09.856Z,9.85
2019-04-26T17:24:53.382Z,11.95
2019-04-26T17:27:23.978Z,12.65
2019-04-26T17:29:52.907Z,16.77
2019-04-26T17:32:23.214Z,11.30
2019-04-26T17:34:54.304Z,12.58
2019-04-26T17:37:26.469Z,12.53
2019-04-26T17:39:55.404Z,13.22
2019-04-26T17:42:25.127Z,14.45
2019-04-26T17:44:53.204Z,14.53
2019-04-26T17:47:21.946Z,14.50
2019-04-26T17:49:52.439Z,14.05
2019-04-26T17:52:20.954Z,12.70
2019-04-26T17:54:51.827Z,11.28
2019-04-26T17:57:32.111Z,14.68
2019-04-26T17:59:51.525Z,12.55
2019-04-26T18:02:38.738Z,11.43
2019-04-26T18:04:58.916Z,13.08
2019-04-26T18:07:40.187Z,11.68
2019-04-26T18:09:52.531Z,11.95
2019-04-26T18:12:21.350Z,10.93
2019-04-26T18:14:50.106Z,10.63
2019-04-26T18:17:26.241Z,9.70
2019-04-26T18:19:56.552Z,10.23
2019-04-26T18:22:28.418Z,10.60
2019-04-26T18:24:57.131Z,11.18
2019-04-26T18:27:25.823Z,11.20
2019-04-26T18:29:54.499Z,10.05
2019-04-26T18:32:24.460Z,11.68
2019-04-26T18:34:53.676Z,11.23
2019-04-26T18:37:23.116Z,10.98
2019-04-26T18:39:53.365Z,10.40
2019-04-26T18:42:22.111Z,11.40
2019-04-26T18:44:50.793Z,12.33
2019-04-26T18:47:25.651Z,15.58
2019-04-26T18:49:57.778Z,17.98
2019-04-26T18:52:23.403Z,15.55
2019-04-26T18:54:58.294Z,13.22
2019-04-26T18:57:27.144Z,13.98
2019-04-26T18:59:55.833Z,13.85
2019-04-26T19:02:26.183Z,14.38
2019-04-26T19:04:54.934Z,14.68
2019-04-26T19:07:31.835Z,13.80
2019-04-26T19:10:00.729Z,12.98
2019-04-26T19:12:26.967Z,12.20
2019-04-26T19:15:14.432Z,12.23
2019-04-26T19:17:47.347Z,11.83
2019-04-26T19:20:23.793Z,10.48
2019-04-26T19:22:57.279Z,11.55
2019-04-26T19:25:29.844Z,13.22
2019-04-26T19:27:58.904Z,11.28
2019-04-26T19:30:27.110Z,11.80
2019-04-26T19:32:55.775Z,11.60
2019-04-26T19:35:24.446Z,12.18
2019-04-26T19:37:53.183Z,12.58
2019-04-26T19:40:27.314Z,12.15
2019-04-26T19:42:57.495Z,11.63
2019-04-26T19:45:39.582Z,11.10
2019-04-26T19:48:12.447Z,12.75
2019-04-26T19:50:48.668Z,13.40
2019-04-26T19:53:22.987Z,13.98
2019-04-26T19:55:58.172Z,12.55
2019-04-26T19:58:32.133Z,12.65
2019-04-26T20:01:01.943Z,12.75
2019-04-26T20:03:32.079Z,11.90
2019-04-26T20:06:01.654Z,11.18
2019-04-26T20:08:30.345Z,12.47
2019-04-26T20:10:59.019Z,12.50
2019-04-26T20:13:27.743Z,12.18
2019-04-26T20:15:57.427Z,11.33
2019-04-26T20:18:26.773Z,12.03
2019-04-26T20:20:55.458Z,12.07
2019-04-26T20:23:24.218Z,12.18
2019-04-26T20:25:53.112Z,14.47
2019-04-26T20:28:22.773Z,12.40
2019-04-26T20:30:57.975Z,12.80
2019-04-26T20:33:30.804Z,12.13
2019-04-26T20:35:57.522Z,12.58
2019-04-26T20:38:27.453Z,11.83
2019-04-26T20:40:56.068Z,12.00
2019-04-26T20:43:26.640Z,13.88
2019-04-26T20:46:11.054Z,13.25
2019-04-26T20:48:29.685Z,12.37
2019-04-26T20:50:55.934Z,15.85
2019-04-26T20:53:24.681Z,12.70
2019-04-26T20:55:53.430Z,12.60
2019-04-26T20:58:22.122Z,13.03
2019-04-26T21:00:54.643Z,13.20
2019-04-26T21:03:26.043Z,12.47
2019-04-26T21:05:58.792Z,13.48
2019-04-26T21:08:25.767Z,13.78
2019-04-26T21:10:56.075Z,11.85
2019-04-26T21:13:23.745Z,12.82
2019-04-26T21:15:58.302Z,14.05
2019-04-26T21:18:23.432Z,13.60
2019-04-26T21:20:52.257Z,13.05
2019-04-26T21:23:22.253Z,13.13
2019-04-26T21:25:55.458Z,13.13
2019-04-26T21:28:38.059Z,14.03
2019-04-26T21:31:22.712Z,13.28
2019-04-26T21:34:07.967Z,12.45
2019-04-26T21:36:53.360Z,13.50
2019-04-26T21:39:23.593Z,13.08
2019-04-26T21:41:53.909Z,13.83
2019-04-26T21:44:22.588Z,12.73
2019-04-26T21:46:56.193Z,13.85
2019-04-26T21:49:22.200Z,13.75
2019-04-26T21:51:54.105Z,13.45
2019-04-26T21:54:24.950Z,13.62
2019-04-26T21:56:53.728Z,14.90
2019-04-26T21:59:24.276Z,15.45
2019-04-26T22:01:58.835Z,17.80
2019-04-26T22:04:24.470Z,18.55
2019-04-26T22:06:53.429Z,16.23
2019-04-26T22:09:37.244Z,15.63
2019-04-26T22:12:07.558Z,14.90
2019-04-26T22:14:37.950Z,15.95
2019-04-26T22:17:14.342Z,14.28
2019-04-26T22:20:04.542Z,16.70
2019-04-26T22:22:44.526Z,14.78
2019-04-26T22:25:14.244Z,13.38
2019-04-26T22:27:43.711Z,13.60
2019-04-26T22:30:14.200Z,12.23
2019-04-26T22:32:42.883Z,12.25
2019-04-26T22:35:13.473Z,12.63
2019-04-26T22:37:45.560Z,13.50
2019-04-26T22:40:17.026Z,15.78
2019-04-26T22:42:44.477Z,13.68
2019-04-26T22:45:14.984Z,13.25
2019-04-26T22:47:45.357Z,13.08
2019-04-26T22:50:21.010Z,13.62
2019-04-26T22:52:51.119Z,12.37
2019-04-26T22:55:17.668Z,14.18
2019-04-26T22:57:45.306Z,13.55
2019-04-26T23:00:15.559Z,13.90
2019-04-26T23:02:45.734Z,14.23
2019-04-26T23:05:14.618Z,13.43
2019-04-26T23:07:43.299Z,13.78
2019-04-26T23:10:13.019Z,14.23
2019-04-26T23:13:07.421Z,14.68
2019-04-26T23:15:43.307Z,13.78
2019-04-26T23:18:16.381Z,14.80
2019-04-26T23:20:58.263Z,13.90
2019-04-26T23:23:27.001Z,15.68
2019-04-26T23:25:55.683Z,15.65
2019-04-26T23:28:27.640Z,16.10
2019-04-26T23:30:54.834Z,15.83
2019-04-26T23:33:23.922Z,16.65
2019-04-26T23:35:53.008Z,16.77
2019-04-26T23:38:23.419Z,17.65
2019-04-26T23:40:52.284Z,15.88
2019-04-26T23:43:24.015Z,15.23
2019-04-26T23:45:52.761Z,14.47
2019-04-26T23:48:22.314Z,13.75
2019-04-26T23:50:50.988Z,12.93
2019-04-26T23:53:20.517Z,14.55
2019-04-26T23:55:50.083Z,16.07
2019-04-26T23:58:18.763Z,16.77
